createdAt,value
2022-10-16T00:02:17.363Z,16.45
2022-10-16T00:04:50.571Z,16.45
2022-10-16T00:07:19.122Z,16.51
2022-10-16T00:09:53.460Z,16.54
2022-10-16T00:12:21.870Z,16.57
2022-10-16T00:14:53.533Z,16.59
2022-10-16T00:17:25.074Z,16.58
2022-10-16T00:19:54.636Z,16.58
2022-10-16T00:22:25.770Z,16.61
2022-10-16T00:24:56.286Z,16.59
2022-10-16T00:27:24.693Z,16.58
2022-10-16T00:32:32.565Z,16.65
2022-10-16T00:37:49.239Z,17.08
2022-10-16T00:40:41.690Z,17.32
2022-10-16T00:43:39.347Z,17.45
2022-10-16T00:46:15.909Z,17.59
2022-10-16T00:48:48.564Z,17.72
2022-10-16T00:51:32.947Z,17.81
2022-10-16T00:54:05.105Z,17.93
2022-10-16T00:56:38.870Z,17.89
2022-10-16T00:59:15.826Z,17.90
2022-10-16T01:01:45.795Z,17.97
2022-10-16T01:04:15.817Z,17.94
2022-10-16T01:06:58.488Z,18.02
2022-10-16T01:09:37.878Z,18.04
2022-10-16T01:12:17.583Z,18.06
2022-10-16T01:14:54.384Z,18.03
2022-10-16T01:17:38.594Z,18.06
2022-10-16T01:20:16.720Z,18.03
2022-10-16T01:23:10.551Z,18.02
2022-10-16T01:26:13.718Z,18.02
2022-10-16T01:32:26.731Z,17.99
2022-10-16T01:35:11.734Z,18.08
2022-10-16T01:37:50.012Z,18.04
2022-10-16T01:43:52.375Z,18.06
2022-10-16T01:46:57.493Z,17.99
2022-10-16T01:49:34.811Z,18.05
2022-10-16T01:52:12.196Z,18.06
2022-10-16T01:54:48.261Z,18.14
2022-10-16T02:00:21.425Z,18.18
2022-10-16T02:02:57.940Z,18.19
2022-10-16T02:05:55.775Z,18.23
2022-10-16T02:08:36.206Z,18.22
2022-10-16T02:14:20.609Z,17.87
2022-10-16T02:17:02.635Z,17.70
2022-10-16T02:22:10.524Z,17.44
2022-10-16T02:24:50.198Z,17.41
2022-10-16T02:27:29.350Z,17.42
2022-10-16T02:30:17.826Z,17.36
2022-10-16T02:32:55.474Z,17.28
2022-10-16T02:35:28.347Z,17.25
2022-10-16T02:38:01.541Z,17.25
2022-10-16T02:40:30.920Z,17.26
2022-10-16T02:42:59.303Z,17.33
2022-10-16T02:45:28.800Z,17.27
2022-10-16T02:47:57.181Z,17.24
2022-10-16T02:50:26.830Z,17.19
2022-10-16T02:52:55.245Z,17.09
2022-10-16T02:55:25.377Z,17.03
2022-10-16T02:58:02.933Z,17.05
2022-10-16T03:00:31.414Z,17.06
2022-10-16T03:02:59.969Z,17.06
2022-10-16T03:05:31.083Z,17.16
2022-10-16T03:08:01.975Z,17.26
2022-10-16T03:10:40.453Z,17.15
2022-10-16T03:13:24.729Z,17.19
2022-10-16T03:15:57.567Z,17.13
2022-10-16T03:18:25.845Z,17.05
2022-10-16T03:20:57.288Z,16.96
2022-10-16T03:23:31.820Z,16.97
2022-10-16T03:26:04.528Z,16.92
2022-10-16T03:28:41.365Z,16.88
2022-10-16T03:31:15.288Z,16.84
2022-10-16T03:33:45.877Z,16.82
2022-10-16T03:36:22.083Z,16.91
2022-10-16T03:38:50.812Z,16.90
2022-10-16T03:41:24.575Z,16.89
2022-10-16T03:43:53.058Z,17.01
2022-10-16T03:46:24.666Z,17.04
2022-10-16T03:48:53.772Z,17.14
2022-10-16T03:51:35.100Z,17.19
2022-10-16T03:54:03.472Z,17.30
2022-10-16T03:56:44.031Z,17.38
2022-10-16T03:59:30.747Z,17.46
2022-10-16T04:02:25.438Z,17.54
2022-10-16T04:05:02.715Z,17.66
2022-10-16T04:07:38.294Z,17.69
2022-10-16T04:10:08.095Z,17.70
2022-10-16T04:12:48.177Z,17.65
2022-10-16T04:15:17.038Z,17.25
2022-10-16T04:17:45.456Z,16.77
2022-10-16T04:20:13.736Z,16.40
2022-10-16T04:22:45.028Z,16.14
2022-10-16T04:25:14.186Z,15.92
2022-10-16T04:27:46.130Z,15.83
2022-10-16T04:30:15.282Z,15.74
2022-10-16T04:32:44.788Z,15.68
2022-10-16T05:14:23.184Z,15.74
2022-10-16T05:16:52.208Z,15.74
2022-10-16T05:19:29.120Z,15.72
2022-10-16T05:21:58.983Z,15.72
2022-10-16T05:24:36.437Z,15.67
2022-10-16T05:27:09.022Z,15.68
2022-10-16T05:29:39.043Z,15.67
2022-10-16T05:32:07.552Z,15.68
2022-10-16T05:34:36.111Z,15.70
2022-10-16T05:37:04.858Z,15.68
2022-10-16T05:39:33.394Z,15.67
2022-10-16T05:42:01.983Z,15.67
2022-10-16T05:44:30.492Z,15.64
2022-10-16T05:47:00.742Z,15.62
2022-10-16T05:49:30.265Z,15.59
2022-10-16T05:52:01.081Z,15.55
2022-10-16T05:54:29.587Z,15.48
2022-10-16T05:56:58.108Z,15.43
2022-10-16T05:59:27.309Z,15.37
2022-10-16T06:01:55.893Z,15.31
2022-10-16T06:04:25.725Z,15.28
2022-10-16T06:06:56.460Z,15.26
2022-10-16T06:09:24.874Z,15.24
2022-10-16T06:11:53.731Z,15.23
2022-10-16T06:14:22.260Z,15.22
2022-10-16T06:16:51.015Z,15.20
2022-10-16T06:19:19.865Z,15.19
2022-10-16T06:21:50.947Z,15.20
2022-10-16T06:30:54.734Z,15.24
2022-10-16T07:04:56.532Z,14.86
2022-10-16T07:07:47.472Z,14.87
2022-10-16T07:10:34.260Z,14.85
2022-10-16T07:13:03.455Z,14.84
2022-10-16T07:33:31.708Z,14.78
2022-10-16T07:36:04.392Z,14.84
2022-10-16T07:38:33.270Z,14.89
2022-10-16T07:54:34.864Z,15.09
2022-10-16T07:57:03.243Z,15.09
2022-10-16T07:59:32.559Z,15.09
2022-10-16T08:02:03.886Z,15.15
2022-10-16T08:04:32.572Z,15.19
2022-10-16T08:07:00.753Z,15.25
2022-10-16T08:09:29.022Z,15.39
2022-10-16T08:12:02.239Z,15.47
2022-10-16T08:14:30.949Z,15.63
2022-10-16T08:16:59.491Z,15.78
2022-10-16T08:19:27.804Z,15.94
2022-10-16T08:21:56.192Z,16.09
2022-10-16T08:24:24.599Z,16.27
2022-10-16T08:26:52.703Z,16.47
2022-10-16T08:29:22.475Z,16.65
2022-10-16T08:31:51.019Z,16.73
2022-10-16T08:34:19.240Z,16.86
2022-10-16T08:36:47.742Z,16.95
2022-10-16T08:39:18.108Z,16.97
2022-10-16T08:42:17.472Z,16.98
2022-10-16T08:45:08.995Z,16.99
2022-10-16T08:47:51.440Z,16.98
2022-10-16T08:50:29.018Z,17.01
2022-10-16T08:52:58.759Z,16.98
2022-10-16T08:55:39.829Z,16.95
2022-10-16T08:58:14.617Z,16.96
2022-10-16T09:00:52.269Z,16.90
2022-10-16T09:03:34.562Z,16.89
2022-10-16T09:06:28.413Z,16.84
2022-10-16T09:09:15.992Z,16.86
2022-10-16T09:11:54.124Z,16.86
2022-10-16T09:14:42.784Z,16.89
2022-10-16T09:17:34.119Z,16.91
2022-10-16T09:20:16.247Z,16.88
2022-10-16T09:22:44.529Z,16.84
2022-10-16T09:25:26.404Z,16.84
2022-10-16T09:28:00.078Z,16.84
2022-10-16T09:30:31.762Z,16.83
2022-10-16T09:33:01.757Z,16.86
2022-10-16T09:35:35.474Z,16.87
2022-10-16T09:38:03.867Z,16.87
2022-10-16T09:40:37.217Z,16.92
2022-10-16T09:43:25.708Z,16.97
2022-10-16T09:45:59.274Z,17.06
2022-10-16T09:48:33.908Z,17.09
2022-10-16T09:51:04.274Z,17.22
2022-10-16T09:53:43.334Z,17.35
2022-10-16T09:56:15.326Z,17.46
2022-10-16T09:58:52.001Z,17.64
2022-10-16T10:01:21.428Z,17.81
2022-10-16T10:04:01.872Z,17.90
2022-10-16T10:06:32.907Z,18.03
2022-10-16T10:09:04.669Z,18.15
2022-10-16T10:11:55.706Z,18.24
2022-10-16T10:14:30.412Z,18.36
2022-10-16T10:17:13.737Z,18.42
2022-10-16T10:19:48.894Z,18.52
2022-10-16T10:22:25.888Z,18.53
2022-10-16T10:24:59.510Z,18.60
2022-10-16T10:27:38.003Z,18.63
2022-10-16T10:32:58.303Z,18.69
2022-10-16T10:35:37.536Z,18.76
2022-10-16T10:38:23.341Z,18.79
2022-10-16T10:40:59.250Z,18.86
2022-10-16T10:43:43.520Z,18.88
2022-10-16T10:46:21.302Z,18.95
2022-10-16T10:49:42.465Z,18.98
2022-10-16T10:52:37.421Z,19.03
2022-10-16T10:55:17.881Z,19.12
2022-10-16T10:58:05.715Z,19.24
2022-10-16T11:00:44.950Z,19.25
2022-10-16T11:03:30.214Z,19.29
2022-10-16T11:06:01.104Z,19.33
2022-10-16T11:08:37.331Z,19.40
2022-10-16T11:11:13.096Z,19.42
2022-10-16T11:13:51.485Z,19.46
2022-10-16T11:16:25.584Z,19.49
2022-10-16T11:18:59.321Z,19.54
2022-10-16T11:21:31.335Z,19.55
2022-10-16T11:24:06.809Z,19.58
2022-10-16T11:26:38.274Z,19.63
2022-10-16T11:29:15.361Z,19.65
2022-10-16T11:31:48.738Z,19.72
2022-10-16T11:34:25.133Z,19.73
2022-10-16T11:36:58.955Z,19.80
2022-10-16T11:39:31.600Z,19.85
2022-10-16T11:42:09.835Z,19.94
2022-10-16T11:44:47.522Z,20.04
2022-10-16T11:53:52.886Z,20.49
2022-10-16T11:56:27.909Z,20.61
2022-10-16T11:59:42.591Z,20.64
2022-10-16T12:03:16.437Z,20.69
2022-10-16T12:05:58.810Z,20.84
2022-10-16T12:11:36.039Z,21.31
2022-10-16T12:14:29.889Z,21.50
2022-10-16T12:17:07.110Z,21.77
2022-10-16T12:19:36.987Z,22.00
2022-10-16T12:22:21.551Z,22.16
2022-10-16T12:24:59.343Z,22.33
2022-10-16T12:27:41.859Z,22.44
2022-10-16T12:30:32.350Z,22.50
2022-10-16T12:33:33.640Z,22.58
2022-10-16T12:36:06.224Z,22.62
2022-10-16T12:39:07.793Z,22.60
2022-10-16T13:57:27.265Z,24.06
2022-10-16T14:00:13.846Z,24.23
2022-10-16T14:02:54.583Z,24.12
2022-10-16T14:05:26.240Z,24.43
2022-10-16T14:08:02.643Z,24.48
2022-10-16T14:13:34.832Z,24.69
2022-10-16T14:21:22.879Z,24.73
2022-10-16T14:24:38.178Z,24.63
2022-10-16T14:27:34.902Z,24.46
2022-10-16T14:45:39.739Z,25.51
2022-10-16T14:48:39.955Z,26.27
2022-10-16T14:51:17.032Z,26.90
2022-10-16T14:53:49.014Z,27.41
2022-10-16T14:56:22.036Z,27.84
2022-10-16T14:58:53.015Z,28.16
2022-10-16T15:01:24.367Z,28.45
2022-10-16T15:03:56.896Z,28.61
2022-10-16T15:06:31.957Z,28.58
2022-10-16T15:09:02.410Z,28.02
2022-10-16T15:11:38.729Z,27.39
2022-10-16T15:14:07.769Z,26.68
2022-10-16T15:16:39.056Z,26.09
2022-10-16T15:19:07.703Z,25.58
2022-10-16T15:21:36.241Z,25.02
2022-10-16T15:24:04.641Z,24.57
2022-10-16T15:26:33.450Z,24.21
2022-10-16T15:29:05.805Z,23.81
2022-10-16T15:31:37.526Z,23.51
2022-10-16T15:34:14.419Z,23.28
2022-10-16T15:36:49.569Z,23.24
2022-10-16T15:39:21.316Z,23.43
2022-10-16T15:41:52.464Z,23.55
2022-10-16T15:44:24.105Z,23.61
2022-10-16T15:46:52.823Z,23.75
2022-10-16T15:49:22.632Z,23.85
2022-10-16T15:51:55.371Z,23.82
2022-10-16T15:54:25.872Z,23.69
2022-10-16T15:56:58.501Z,23.52
2022-10-16T16:02:18.743Z,23.11
2022-10-16T16:04:49.441Z,22.87
2022-10-16T16:10:08.575Z,22.47
2022-10-16T16:12:51.890Z,22.32
2022-10-16T16:15:59.294Z,22.16
2022-10-16T16:18:37.974Z,22.02
2022-10-16T16:21:16.454Z,21.89
2022-10-16T16:24:13.918Z,21.73
2022-10-16T16:26:45.110Z,21.58
2022-10-16T16:29:39.588Z,21.44
2022-10-16T16:32:09.601Z,21.38
2022-10-16T16:34:38.277Z,21.32
2022-10-16T16:37:13.281Z,21.20
2022-10-16T16:39:50.722Z,21.14
2022-10-16T16:42:19.194Z,21.08
2022-10-16T16:44:58.294Z,20.99
2022-10-16T16:47:52.524Z,20.88
2022-10-16T16:50:26.445Z,20.76
2022-10-16T16:53:05.910Z,20.67
2022-10-16T16:55:50.784Z,20.60
2022-10-16T16:58:42.276Z,20.52
2022-10-16T17:01:19.917Z,20.44
2022-10-16T17:03:51.766Z,20.32
2022-10-16T17:10:10.038Z,20.22
2022-10-16T17:12:39.255Z,20.18
2022-10-16T17:15:08.754Z,20.14
2022-10-16T17:17:37.514Z,20.06
2022-10-16T17:20:22.165Z,19.98
2022-10-16T17:25:52.878Z,19.93
2022-10-16T17:28:35.233Z,19.92
2022-10-16T17:31:14.886Z,19.84
2022-10-16T17:33:43.815Z,19.77
2022-10-16T17:39:06.226Z,19.68
2022-10-16T17:41:39.013Z,19.64
2022-10-16T17:44:08.353Z,19.60
2022-10-16T17:46:41.382Z,19.58
2022-10-16T17:49:28.545Z,19.55
2022-10-16T17:52:03.166Z,19.51
2022-10-16T17:54:45.394Z,19.52
2022-10-16T17:57:18.167Z,19.54
2022-10-16T17:59:48.957Z,19.51
2022-10-16T18:02:37.204Z,19.47
2022-10-16T18:05:06.962Z,19.43
2022-10-16T18:10:11.844Z,19.36
2022-10-16T18:12:46.071Z,19.41
2022-10-16T18:15:16.502Z,19.45
2022-10-16T18:17:45.712Z,19.47
2022-10-16T18:20:14.735Z,19.45
2022-10-16T18:22:47.642Z,19.44
2022-10-16T18:25:16.790Z,19.46
2022-10-16T18:27:47.424Z,19.50
2022-10-16T18:30:16.129Z,19.49
2022-10-16T18:32:46.122Z,19.53
2022-10-16T18:35:28.251Z,19.55
2022-10-16T18:38:00.923Z,19.56
2022-10-16T18:40:30.507Z,19.60
2022-10-16T18:59:17.719Z,19.59
2022-10-16T19:01:52.190Z,19.64
2022-10-16T19:04:24.523Z,19.66
2022-10-16T19:06:56.491Z,19.71
2022-10-16T19:09:26.637Z,19.69
2022-10-16T19:11:57.061Z,19.71
2022-10-16T19:14:34.237Z,19.68
2022-10-16T19:17:02.896Z,19.67
2022-10-16T19:19:31.163Z,19.62
2022-10-16T19:25:02.619Z,19.57
2022-10-16T19:41:32.694Z,19.46
2022-10-16T19:47:11.191Z,19.55
